Time;durP1;ratioP1;P1;durP2;ratioP2;P2;SDS_P1;SDS_P2;PMS_P1;PMS_P2;Temp;Humidity;BMP_temperature;BMP_pressure;BME280_temperature;BME280_humidity;BME280_pressure;Samples;Min_cycle;Max_cycle;Signal;HPM_P1;HPM_P2
2023/01/22 00:02:17;;;;;;;;;;;18.10;85.70;;;;;;5094079;28;19999;-44
2023/01/22 00:04:43;;;;;;;;;;;18.10;85.70;;;;;;5094213;28;19908;-51
2023/01/22 00:07:08;;;;;;;;;;;18.10;85.60;;;;;;5093891;28;20423;-46
2023/01/22 00:09:34;;;;;;;;;;;18.00;85.60;;;;;;5093796;28;19908;-47
2023/01/22 00:11:59;;;;;;;;;;;18.10;85.70;;;;;;5093625;28;19951;-48
2023/01/22 00:14:25;;;;;;;;;;;18.10;85.40;;;;;;5093415;28;19916;-48
2023/01/22 00:16:50;;;;;;;;;;;18.10;86.20;;;;;;5075897;28;19908;-48
2023/01/22 00:19:16;;;;;;;;;;;18.20;85.60;;;;;;5093689;28;19915;-45
2023/01/22 00:21:41;;;;;;;;;;;18.20;85.50;;;;;;5094076;28;20343;-45
2023/01/22 00:24:07;;;;;;;;;;;18.20;85.60;;;;;;5093552;28;19919;-45
2023/01/22 00:26:32;;;;;;;;;;;18.30;85.50;;;;;;5093811;28;20301;-50
2023/01/22 00:28:58;;;;;;;;;;;18.30;85.30;;;;;;5093782;28;19908;-47
2023/01/22 00:31:23;;;;;;;;;;;18.30;85.30;;;;;;5093787;28;19908;-45
2023/01/22 00:33:49;;;;;;;;;;;18.30;85.10;;;;;;5093606;28;19912;-51
2023/01/22 00:36:18;;;;;;;;;;;18.30;85.00;;;;;;5093222;28;19919;-49
2023/01/22 00:38:44;;;;;;;;;;;18.30;85.00;;;;;;5075782;28;20333;-49
2023/01/22 00:41:10;;;;;;;;;;;18.30;85.10;;;;;;5093483;28;19951;-47
2023/01/22 00:43:37;;;;;;;;;;;18.20;85.10;;;;;;5093693;28;19955;-45
2023/01/22 00:46:03;;;;;;;;;;;18.20;85.10;;;;;;5093579;28;19929;-47
2023/01/22 00:48:29;;;;;;;;;;;18.20;84.70;;;;;;5093549;28;19958;-47
2023/01/22 00:50:54;;;;;;;;;;;18.20;84.50;;;;;;5093477;28;19915;-48
2023/01/22 00:53:19;;;;;;;;;;;18.20;84.60;;;;;;5093407;28;20343;-46
2023/01/22 00:55:51;;;;;;;;;;;18.20;84.40;;;;;;5093392;28;19919;-48
2023/01/22 00:58:17;;;;;;;;;;;18.30;83.90;;;;;;5093881;28;19981;-48
2023/01/22 01:00:42;;;;;;;;;;;18.40;85.10;;;;;;5093556;28;19912;-46
2023/01/22 01:03:26;;;;;;;;;;;18.40;85.10;;;;;;5093628;28;19908;-47
2023/01/22 01:05:52;;;;;;;;;;;18.40;85.00;;;;;;5094554;28;19908;-44
2023/01/22 01:08:18;;;;;;;;;;;18.40;85.10;;;;;;5096922;28;19912;-46
2023/01/22 01:10:43;;;;;;;;;;;18.40;85.20;;;;;;5097228;28;20367;-46
2023/01/22 01:13:09;;;;;;;;;;;18.40;85.00;;;;;;5096690;28;19912;-49
2023/01/22 01:15:34;;;;;;;;;;;18.40;85.20;;;;;;5097091;28;19918;-48
2023/01/22 01:18:00;;;;;;;;;;;18.40;85.60;;;;;;5096803;28;20276;-45
2023/01/22 01:20:25;;;;;;;;;;;18.30;85.50;;;;;;5096725;28;19908;-45
2023/01/22 01:22:51;;;;;;;;;;;18.30;85.80;;;;;;5096942;28;19938;-47
2023/01/22 01:25:16;;;;;;;;;;;18.30;85.80;;;;;;5096863;28;19973;-46
2023/01/22 01:27:42;;;;;;;;;;;18.20;85.80;;;;;;5096492;28;19908;-49
2023/01/22 01:30:07;;;;;;;;;;;18.20;85.80;;;;;;5096757;28;19935;-45
2023/01/22 01:32:33;;;;;;;;;;;18.20;85.90;;;;;;5096655;28;19912;-47
2023/01/22 01:34:58;;;;;;;;;;;18.10;86.00;;;;;;5096380;28;20022;-47
2023/01/22 01:37:24;;;;;;;;;;;18.10;85.80;;;;;;5096696;28;19920;-46
2023/01/22 01:39:51;;;;;;;;;;;18.10;85.80;;;;;;5096891;28;19908;-48
2023/01/22 01:42:29;;;;;;;;;;;18.10;85.70;;;;;;5096589;28;19908;-46
2023/01/22 01:45:13;;;;;;;;;;;18.10;85.80;;;;;;5096429;28;19908;-46
2023/01/22 01:47:38;;;;;;;;;;;18.10;85.60;;;;;;5096663;28;19995;-47
2023/01/22 01:50:04;;;;;;;;;;;18.10;85.50;;;;;;5096068;28;20028;-45
2023/01/22 01:52:29;;;;;;;;;;;18.20;85.80;;;;;;5096044;28;19912;-46
2023/01/22 01:54:56;;;;;;;;;;;18.20;85.80;;;;;;5096200;28;20343;-46
2023/01/22 01:57:25;;;;;;;;;;;18.20;85.80;;;;;;5078218;28;19983;-48
2023/01/22 01:59:51;;;;;;;;;;;18.30;85.70;;;;;;5096251;28;19908;-47
2023/01/22 02:02:19;;;;;;;;;;;18.30;85.60;;;;;;5096161;28;19954;-46
2023/01/22 02:04:45;;;;;;;;;;;18.40;85.30;;;;;;5096142;28;19959;-46
2023/01/22 02:07:10;;;;;;;;;;;18.40;84.80;;;;;;5095850;28;19908;-46
2023/01/22 02:09:36;;;;;;;;;;;18.40;85.10;;;;;;5096097;28;19962;-47
2023/01/22 02:12:01;;;;;;;;;;;18.40;85.00;;;;;;5095608;28;19908;-47
2023/01/22 02:14:29;;;;;;;;;;;18.30;85.00;;;;;;5095896;28;19920;-45
2023/01/22 02:17:00;;;;;;;;;;;18.40;85.00;;;;;;5095140;28;19915;-46
2023/01/22 02:19:26;;;;;;;;;;;18.30;85.00;;;;;;5095568;28;19909;-46
2023/01/22 02:21:51;;;;;;;;;;;18.30;85.00;;;;;;5095485;28;19915;-48
2023/01/22 02:24:17;;;;;;;;;;;18.30;85.00;;;;;;5077680;28;20413;-49
2023/01/22 02:26:43;;;;;;;;;;;18.20;84.90;;;;;;5095724;28;19908;-48
2023/01/22 02:29:10;;;;;;;;;;;18.20;84.90;;;;;;5095330;28;19934;-51
2023/01/22 02:31:36;;;;;;;;;;;18.20;84.90;;;;;;5095642;28;19915;-46
2023/01/22 02:34:02;;;;;;;;;;;18.20;85.20;;;;;;5095520;28;19912;-49
2023/01/22 02:36:28;;;;;;;;;;;18.20;85.40;;;;;;5095631;28;20266;-48
2023/01/22 02:38:53;;;;;;;;;;;18.30;85.60;;;;;;5095831;28;19999;-44
2023/01/22 02:41:19;;;;;;;;;;;18.40;85.50;;;;;;5095106;28;20413;-46
2023/01/22 02:43:44;;;;;;;;;;;18.60;85.40;;;;;;5095359;28;19908;-49
2023/01/22 02:46:10;;;;;;;;;;;18.70;85.30;;;;;;5095413;28;19966;-47
2023/01/22 02:48:35;;;;;;;;;;;18.80;84.60;;;;;;5095145;28;20006;-45
2023/01/22 02:51:01;;;;;;;;;;;18.80;85.40;;;;;;5095088;28;19908;-49
2023/01/22 02:53:26;;;;;;;;;;;18.80;85.00;;;;;;5094778;28;19916;-47
2023/01/22 02:55:52;;;;;;;;;;;18.80;84.90;;;;;;5094807;28;19908;-48
2023/01/22 02:58:17;;;;;;;;;;;18.70;84.80;;;;;;5094654;28;19912;-47
2023/01/22 03:00:43;;;;;;;;;;;18.70;85.20;;;;;;5094959;28;19908;-47
2023/01/22 03:03:14;;;;;;;;;;;18.70;84.70;;;;;;5094748;28;20065;-45
2023/01/22 03:05:49;;;;;;;;;;;18.60;84.50;;;;;;5094655;28;20410;-44
2023/01/22 03:08:15;;;;;;;;;;;18.60;84.40;;;;;;5094806;28;19908;-44
2023/01/22 03:10:41;;;;;;;;;;;18.50;84.50;;;;;;5094588;28;20365;-45
2023/01/22 03:21:19;;;;;;;;;;;18.40;84.80;;;;;;5094482;28;19916;-49
2023/01/22 03:23:48;;;;;;;;;;;18.40;85.20;;;;;;5094302;28;19908;-45
2023/01/22 03:26:14;;;;;;;;;;;18.30;85.60;;;;;;5094110;28;20370;-46
2023/01/22 03:28:40;;;;;;;;;;;18.30;85.30;;;;;;5093917;28;19908;-44
2023/01/22 03:31:05;;;;;;;;;;;18.30;86.00;;;;;;5093889;28;20326;-48
2023/01/22 03:33:31;;;;;;;;;;;18.30;85.80;;;;;;5094334;28;19920;-44
2023/01/22 03:36:04;;;;;;;;;;;18.40;86.00;;;;;;5094435;28;19909;-47
2023/01/22 03:38:29;;;;;;;;;;;18.40;86.20;;;;;;5093850;28;19927;-46
2023/01/22 03:41:02;;;;;;;;;;;18.50;86.00;;;;;;5076526;28;19908;-48
2023/01/22 03:43:28;;;;;;;;;;;18.50;85.60;;;;;;5094209;28;19951;-46
2023/01/22 03:45:58;;;;;;;;;;;18.50;84.80;;;;;;5094661;28;20279;-46
2023/01/22 03:48:23;;;;;;;;;;;18.50;84.70;;;;;;5094254;28;19914;-49
2023/01/22 03:50:49;;;;;;;;;;;18.50;85.00;;;;;;5092573;28;20011;-48
2023/01/22 03:53:14;;;;;;;;;;;18.50;84.50;;;;;;5093710;28;19920;-44
2023/01/22 03:55:39;;;;;;;;;;;18.50;84.50;;;;;;5094135;28;19915;-45
2023/01/22 03:58:05;;;;;;;;;;;18.50;84.80;;;;;;5093871;28;19931;-45
2023/01/22 04:00:30;;;;;;;;;;;18.50;84.70;;;;;;5094138;28;19915;-45
2023/01/22 04:02:56;;;;;;;;;;;18.40;84.70;;;;;;5093925;28;19908;-46
2023/01/22 04:05:21;;;;;;;;;;;18.40;85.20;;;;;;5093843;28;20367;-45
2023/01/22 04:07:47;;;;;;;;;;;18.40;84.40;;;;;;5106145;28;19919;-45
2023/01/22 04:10:13;;;;;;;;;;;18.40;85.00;;;;;;5099002;28;19918;-49
2023/01/22 04:12:38;;;;;;;;;;;18.30;84.80;;;;;;5114300;28;19916;-47
2023/01/22 04:15:04;;;;;;;;;;;18.30;84.70;;;;;;5103953;28;19995;-45
2023/01/22 04:17:30;;;;;;;;;;;18.30;84.60;;;;;;5094013;28;20409;-45
2023/01/22 04:19:55;;;;;;;;;;;18.30;84.70;;;;;;5085966;28;19912;-45
2023/01/22 04:22:20;;;;;;;;;;;18.30;84.80;;;;;;5087771;28;19912;-46
2023/01/22 04:24:46;;;;;;;;;;;18.40;84.80;;;;;;5090861;28;19908;-46
2023/01/22 04:27:11;;;;;;;;;;;18.40;85.00;;;;;;5082406;28;19955;-50
2023/01/22 04:29:37;;;;;;;;;;;18.50;85.80;;;;;;5093896;28;20363;-47
2023/01/22 04:32:02;;;;;;;;;;;18.50;84.70;;;;;;5093379;28;19914;-47
2023/01/22 04:34:28;;;;;;;;;;;18.60;85.20;;;;;;5093751;28;19924;-45
2023/01/22 04:36:53;;;;;;;;;;;18.60;85.00;;;;;;5093555;28;19920;-47
2023/01/22 04:39:19;;;;;;;;;;;18.60;85.60;;;;;;5093954;28;19915;-48
2023/01/22 04:41:44;;;;;;;;;;;18.60;85.20;;;;;;5093900;28;20385;-45
2023/01/22 04:44:10;;;;;;;;;;;18.50;85.30;;;;;;5068190;28;20275;-46
2023/01/22 04:46:35;;;;;;;;;;;18.50;85.20;;;;;;5094041;28;20003;-48
2023/01/22 04:49:00;;;;;;;;;;;18.50;84.90;;;;;;5090715;28;20007;-45
2023/01/22 04:51:26;;;;;;;;;;;18.50;85.20;;;;;;5097718;28;19916;-47
2023/01/22 04:53:51;;;;;;;;;;;18.40;84.90;;;;;;5094984;28;19921;-50
2023/01/22 04:56:17;;;;;;;;;;;18.40;84.90;;;;;;5085597;28;19912;-46
2023/01/22 04:58:42;;;;;;;;;;;18.40;84.50;;;;;;5097424;28;19908;-45
2023/01/22 05:01:08;;;;;;;;;;;18.40;84.70;;;;;;5097283;28;19957;-45
2023/01/22 05:03:33;;;;;;;;;;;18.30;84.70;;;;;;5097614;28;19961;-45
2023/01/22 05:06:03;;;;;;;;;;;18.30;84.80;;;;;;5096907;28;20015;-45
2023/01/22 05:08:28;;;;;;;;;;;18.30;85.40;;;;;;5092781;28;19912;-47
2023/01/22 05:10:54;;;;;;;;;;;18.30;84.90;;;;;;5096706;28;20476;-47
2023/01/22 05:13:19;;;;;;;;;;;18.30;84.80;;;;;;5096998;28;19920;-45
2023/01/22 05:15:44;;;;;;;;;;;18.30;85.20;;;;;;5098938;28;19912;-45
2023/01/22 05:18:10;;;;;;;;;;;18.30;85.50;;;;;;5104246;28;20362;-50
2023/01/22 05:20:35;;;;;;;;;;;18.40;85.50;;;;;;5096961;28;20248;-46
2023/01/22 05:23:01;;;;;;;;;;;18.40;85.60;;;;;;5096775;28;19908;-46
2023/01/22 05:25:26;;;;;;;;;;;18.50;85.80;;;;;;5096678;28;19962;-46
2023/01/22 05:27:52;;;;;;;;;;;18.50;85.60;;;;;;5094947;28;19912;-48
2023/01/22 05:30:17;;;;;;;;;;;18.30;73.40;;;;;;5095535;28;19951;-45
2023/01/22 05:32:43;;;;;;;;;;;18.20;78.50;;;;;;5096813;28;19921;-46
2023/01/22 05:35:08;;;;;;;;;;;18.30;81.10;;;;;;5099370;28;19995;-45
2023/01/22 05:37:34;;;;;;;;;;;18.30;82.50;;;;;;5094887;28;19927;-45
2023/01/22 05:39:59;;;;;;;;;;;18.30;83.10;;;;;;5096167;28;19912;-45
2023/01/22 05:42:25;;;;;;;;;;;18.30;82.70;;;;;;5096692;28;19943;-48
2023/01/22 05:44:50;;;;;;;;;;;18.30;83.20;;;;;;5096604;28;20258;-45
2023/01/22 05:47:16;;;;;;;;;;;18.30;83.30;;;;;;5096251;28;19904;-46
2023/01/22 05:49:41;;;;;;;;;;;18.30;83.40;;;;;;5094774;28;19930;-48
2023/01/22 05:52:09;;;;;;;;;;;18.30;83.40;;;;;;5093415;28;20132;-46
2023/01/22 05:54:35;;;;;;;;;;;18.30;83.90;;;;;;5094319;28;20303;-45
2023/01/22 05:57:00;;;;;;;;;;;18.30;84.00;;;;;;5094287;28;19999;-46
2023/01/22 05:59:26;;;;;;;;;;;18.20;84.40;;;;;;5093953;28;19904;-46
2023/01/22 06:01:51;;;;;;;;;;;18.20;84.40;;;;;;5093914;28;19904;-46
2023/01/22 06:04:17;;;;;;;;;;;18.20;84.80;;;;;;5094717;28;20305;-46
2023/01/22 06:06:42;;;;;;;;;;;18.20;85.10;;;;;;5096326;28;19904;-45
2023/01/22 06:09:10;;;;;;;;;;;18.20;85.00;;;;;;5096152;28;19904;-47
2023/01/22 06:11:35;;;;;;;;;;;18.20;85.50;;;;;;5096032;28;19933;-45
2023/01/22 06:14:01;;;;;;;;;;;18.30;85.20;;;;;;5095970;28;19937;-46
2023/01/22 06:16:26;;;;;;;;;;;18.30;85.00;;;;;;5095957;28;20410;-46
2023/01/22 06:18:52;;;;;;;;;;;18.40;85.10;;;;;;5095532;28;20375;-45
2023/01/22 06:21:17;;;;;;;;;;;18.40;84.70;;;;;;5095915;28;19939;-47
2023/01/22 06:23:43;;;;;;;;;;;18.40;84.90;;;;;;5095787;28;20250;-47
2023/01/22 06:26:08;;;;;;;;;;;18.40;84.90;;;;;;5095312;28;19946;-44
2023/01/22 06:28:33;;;;;;;;;;;18.30;85.20;;;;;;5095361;28;19958;-46
2023/01/22 06:31:06;;;;;;;;;;;18.30;84.90;;;;;;5095334;28;19908;-44
2023/01/22 06:33:33;;;;;;;;;;;18.30;85.10;;;;;;5095495;28;19912;-47
2023/01/22 06:35:59;;;;;;;;;;;18.30;85.20;;;;;;5095532;28;19904;-45
2023/01/22 06:38:24;;;;;;;;;;;18.20;85.10;;;;;;5095834;28;19961;-47
2023/01/22 06:40:51;;;;;;;;;;;18.20;85.30;;;;;;5095100;28;19904;-45
2023/01/22 06:43:16;;;;;;;;;;;18.20;85.30;;;;;;5095100;28;19904;-47
2023/01/22 06:45:42;;;;;;;;;;;18.20;85.10;;;;;;5095324;28;19996;-45
2023/01/22 06:48:07;;;;;;;;;;;18.10;85.10;;;;;;5094988;28;20278;-45
2023/01/22 06:50:32;;;;;;;;;;;18.10;85.20;;;;;;5095466;28;19983;-45
2023/01/22 06:52:59;;;;;;;;;;;18.10;84.90;;;;;;5095059;28;19919;-45
2023/01/22 06:55:24;;;;;;;;;;;18.10;85.40;;;;;;5076854;28;19904;-47
2023/01/22 06:57:50;;;;;;;;;;;18.20;85.40;;;;;;5094838;28;19904;-49
2023/01/22 07:00:15;;;;;;;;;;;18.40;86.20;;;;;;5095129;28;19912;-52
2023/01/22 07:02:41;;;;;;;;;;;18.70;85.80;;;;;;5095026;28;19904;-44
2023/01/22 07:05:06;;;;;;;;;;;18.90;85.30;;;;;;5094536;28;19953;-46
2023/01/22 07:07:32;;;;;;;;;;;19.10;84.20;;;;;;5094603;28;20353;-47
2023/01/22 07:09:57;;;;;;;;;;;19.30;84.00;;;;;;5094829;28;20297;-45
2023/01/22 07:12:23;;;;;;;;;;;19.30;83.80;;;;;;5094481;28;19927;-47
2023/01/22 07:14:48;;;;;;;;;;;19.30;83.40;;;;;;5094899;28;19951;-47
2023/01/22 07:17:14;;;;;;;;;;;19.20;83.60;;;;;;5094669;28;20003;-46
2023/01/22 07:19:39;;;;;;;;;;;19.10;83.80;;;;;;5094743;28;19904;-45
2023/01/22 07:22:05;;;;;;;;;;;19.10;84.00;;;;;;5094474;28;19913;-46
2023/01/22 07:24:30;;;;;;;;;;;19.00;84.10;;;;;;5094309;28;19904;-46
2023/01/22 07:26:56;;;;;;;;;;;18.90;84.20;;;;;;5094370;28;19904;-48
2023/01/22 07:29:21;;;;;;;;;;;18.90;84.30;;;;;;5094469;28;19908;-48
2023/01/22 07:31:46;;;;;;;;;;;18.80;84.20;;;;;;5094512;28;19908;-45
2023/01/22 07:34:12;;;;;;;;;;;18.70;84.10;;;;;;5076318;28;19919;-48
2023/01/22 07:36:37;;;;;;;;;;;18.70;84.30;;;;;;5094419;28;19920;-45
2023/01/22 07:39:04;;;;;;;;;;;18.60;84.10;;;;;;5094794;28;19958;-46
2023/01/22 07:41:30;;;;;;;;;;;18.60;84.00;;;;;;5094384;28;19904;-46
2023/01/22 07:43:56;;;;;;;;;;;18.50;84.10;;;;;;5094007;28;19926;-45
2023/01/22 07:46:22;;;;;;;;;;;18.50;84.20;;;;;;5093964;28;19908;-46
2023/01/22 07:48:47;;;;;;;;;;;18.40;84.10;;;;;;5094581;28;19953;-47
2023/01/22 07:51:13;;;;;;;;;;;18.40;84.10;;;;;;5094291;28;20236;-45
2023/01/22 07:53:39;;;;;;;;;;;18.40;84.70;;;;;;5093737;28;19912;-48
2023/01/22 07:56:04;;;;;;;;;;;18.40;84.60;;;;;;5094187;28;19911;-48
2023/01/22 07:58:30;;;;;;;;;;;18.40;85.00;;;;;;5094206;28;19927;-49
2023/01/22 08:00:55;;;;;;;;;;;18.40;85.70;;;;;;5092627;28;20278;-50
2023/01/22 08:03:21;;;;;;;;;;;18.50;86.00;;;;;;5093462;28;19923;-49
2023/01/22 08:05:46;;;;;;;;;;;18.70;85.30;;;;;;5075851;28;20366;-46
2023/01/22 08:08:12;;;;;;;;;;;18.80;85.40;;;;;;5093522;28;19977;-44
2023/01/22 08:10:38;;;;;;;;;;;18.90;85.00;;;;;;5093653;28;20358;-47
2023/01/22 08:13:03;;;;;;;;;;;18.90;84.80;;;;;;5093648;28;19916;-50
2023/01/22 08:15:30;;;;;;;;;;;18.90;84.20;;;;;;5076169;28;19961;-47
2023/01/22 08:17:55;;;;;;;;;;;18.90;84.30;;;;;;5101720;28;20375;-48
2023/01/22 08:20:21;;;;;;;;;;;18.80;83.80;;;;;;5103129;28;19912;-47
2023/01/22 08:22:47;;;;;;;;;;;18.80;83.80;;;;;;5107028;28;20282;-45
2023/01/22 08:25:13;;;;;;;;;;;18.80;83.80;;;;;;5100960;28;19913;-46
2023/01/22 08:27:38;;;;;;;;;;;18.70;84.00;;;;;;5097715;28;20333;-49
2023/01/22 08:30:04;;;;;;;;;;;18.70;84.10;;;;;;5079486;28;20085;-47
2023/01/22 08:32:30;;;;;;;;;;;18.60;84.20;;;;;;5095403;28;19954;-50
2023/01/22 08:34:56;;;;;;;;;;;18.60;84.20;;;;;;5097477;28;19912;-47
2023/01/22 08:37:21;;;;;;;;;;;18.50;84.40;;;;;;5078984;28;20085;-46
2023/01/22 08:39:47;;;;;;;;;;;18.50;84.40;;;;;;5097725;28;19915;-48
2023/01/22 08:42:12;;;;;;;;;;;18.50;84.60;;;;;;5097550;28;20293;-46
2023/01/22 08:44:38;;;;;;;;;;;18.40;84.60;;;;;;5097635;28;19908;-47
2023/01/22 08:47:03;;;;;;;;;;;18.40;84.50;;;;;;5097461;28;19908;-46
2023/01/22 08:49:32;;;;;;;;;;;18.40;84.40;;;;;;5104848;28;19913;-46
2023/01/22 08:51:57;;;;;;;;;;;18.30;83.60;;;;;;5095748;28;19912;-46
2023/01/22 08:54:23;;;;;;;;;;;18.30;82.70;;;;;;5098383;28;20378;-50
2023/01/22 08:56:48;;;;;;;;;;;18.40;82.40;;;;;;5092789;28;19913;-50
2023/01/22 08:59:14;;;;;;;;;;;18.40;82.00;;;;;;5096808;28;20382;-46
2023/01/22 09:01:40;;;;;;;;;;;18.40;81.50;;;;;;5096939;28;20008;-49
2023/01/22 09:04:06;;;;;;;;;;;18.50;81.00;;;;;;5098013;28;19999;-49
2023/01/22 09:06:32;;;;;;;;;;;18.50;80.90;;;;;;5097145;28;19908;-47
2023/01/22 09:09:00;;;;;;;;;;;18.50;80.60;;;;;;5097481;28;19919;-46
2023/01/22 09:11:26;;;;;;;;;;;18.50;80.50;;;;;;5079012;28;19912;-47
2023/01/22 09:13:55;;;;;;;;;;;18.40;80.50;;;;;;5096937;28;19967;-47
2023/01/22 09:16:20;;;;;;;;;;;18.40;80.50;;;;;;5104949;28;19912;-47
2023/01/22 09:18:46;;;;;;;;;;;18.30;80.60;;;;;;5107095;28;20247;-47
2023/01/22 09:21:11;;;;;;;;;;;18.30;80.60;;;;;;5096304;28;20383;-50
2023/01/22 09:23:37;;;;;;;;;;;18.30;80.70;;;;;;5091304;28;19962;-49
2023/01/22 09:26:02;;;;;;;;;;;18.20;80.70;;;;;;5095188;28;19912;-47
2023/01/22 09:28:28;;;;;;;;;;;18.20;80.80;;;;;;5095292;28;19919;-49
2023/01/22 09:30:53;;;;;;;;;;;18.20;80.90;;;;;;5096548;28;19908;-48
2023/01/22 09:33:19;;;;;;;;;;;18.20;80.80;;;;;;5095395;28;19920;-47
2023/01/22 09:35:44;;;;;;;;;;;18.10;80.80;;;;;;5095386;28;19919;-48
2023/01/22 09:38:11;;;;;;;;;;;18.10;80.90;;;;;;5096454;28;19927;-48
2023/01/22 09:40:49;;;;;;;;;;;18.10;80.90;;;;;;5096821;28;19912;-47
2023/01/22 09:43:14;;;;;;;;;;;18.10;80.80;;;;;;5096422;28;19914;-48
2023/01/22 09:45:40;;;;;;;;;;;18.10;80.80;;;;;;5078380;28;19908;-49
2023/01/22 09:48:08;;;;;;;;;;;18.10;80.80;;;;;;5096356;28;20055;-48
2023/01/22 09:50:33;;;;;;;;;;;18.10;80.70;;;;;;5096062;28;19908;-46
2023/01/22 09:53:02;;;;;;;;;;;18.10;80.60;;;;;;5096273;28;19916;-45
2023/01/22 09:55:29;;;;;;;;;;;18.10;80.70;;;;;;5094085;28;19969;-47
2023/01/22 09:57:55;;;;;;;;;;;18.10;80.90;;;;;;5094153;28;19919;-50
2023/01/22 10:00:43;;;;;;;;;;;18.20;80.60;;;;;;5077601;28;19908;-45
2023/01/22 10:03:17;;;;;;;;;;;18.20;80.20;;;;;;5077937;28;19912;-46
2023/01/22 10:05:45;;;;;;;;;;;18.20;80.00;;;;;;5077793;28;19957;-46
2023/01/22 10:08:21;;;;;;;;;;;18.20;80.00;;;;;;5077973;28;19915;-50
2023/01/22 10:10:47;;;;;;;;;;;18.10;79.90;;;;;;5093956;28;19915;-47
2023/01/22 10:13:18;;;;;;;;;;;18.10;80.10;;;;;;5091062;28;20391;-49
2023/01/22 10:15:44;;;;;;;;;;;18.10;80.10;;;;;;5093589;28;19947;-48
2023/01/22 10:18:31;;;;;;;;;;;18.10;80.00;;;;;;5092092;28;19950;-49
2023/01/22 10:20:58;;;;;;;;;;;18.00;79.90;;;;;;5091855;28;20325;-47
2023/01/22 10:23:24;;;;;;;;;;;18.00;80.00;;;;;;5095547;28;20366;-48
2023/01/22 10:25:53;;;;;;;;;;;18.00;80.10;;;;;;5095656;28;19960;-47
2023/01/22 10:28:22;;;;;;;;;;;18.00;80.20;;;;;;5095378;28;20018;-46
2023/01/22 10:30:48;;;;;;;;;;;18.00;80.20;;;;;;5095593;28;19912;-47
2023/01/22 10:33:20;;;;;;;;;;;18.00;80.20;;;;;;5095366;28;19961;-48
2023/01/22 10:35:46;;;;;;;;;;;18.00;80.20;;;;;;5095304;28;19908;-50
2023/01/22 10:38:29;;;;;;;;;;;18.00;80.10;;;;;;5094972;28;19927;-46
2023/01/22 10:40:56;;;;;;;;;;;18.00;80.20;;;;;;5077233;28;19908;-48
2023/01/22 10:43:28;;;;;;;;;;;18.00;80.10;;;;;;5095103;28;19912;-50
2023/01/22 10:45:54;;;;;;;;;;;18.00;80.10;;;;;;5094809;28;19909;-50
2023/01/22 10:48:20;;;;;;;;;;;18.00;80.00;;;;;;5094788;28;19915;-49
2023/01/22 10:50:57;;;;;;;;;;;18.00;80.00;;;;;;5077087;28;19912;-47
2023/01/22 10:53:28;;;;;;;;;;;18.10;79.90;;;;;;5095027;28;20267;-50
2023/01/22 10:55:55;;;;;;;;;;;18.10;79.90;;;;;;5076882;28;20003;-48
2023/01/22 10:58:21;;;;;;;;;;;18.10;79.90;;;;;;5095311;28;19909;-50
2023/01/22 11:01:01;;;;;;;;;;;18.10;79.60;;;;;;5094510;28;19916;-51
2023/01/22 11:03:29;;;;;;;;;;;18.10;79.80;;;;;;5094536;28;19908;-51
2023/01/22 11:05:56;;;;;;;;;;;18.00;79.40;;;;;;5094982;28;20603;-48
2023/01/22 11:08:24;;;;;;;;;;;18.10;79.60;;;;;;5107278;28;19923;-48
2023/01/22 11:10:57;;;;;;;;;;;18.00;79.80;;;;;;5077983;28;19912;-47
2023/01/22 11:13:23;;;;;;;;;;;18.00;81.10;;;;;;5094705;28;19916;-48
2023/01/22 11:16:11;;;;;;;;;;;18.10;81.80;;;;;;5094380;28;19915;-46
2023/01/22 11:18:41;;;;;;;;;;;18.00;81.70;;;;;;5094743;28;19943;-50
2023/01/22 11:21:15;;;;;;;;;;;18.10;82.10;;;;;;5076243;28;19962;-46
2023/01/22 11:23:46;;;;;;;;;;;18.00;82.10;;;;;;5094625;28;19917;-50
2023/01/22 11:26:15;;;;;;;;;;;18.10;82.30;;;;;;5076381;28;19908;-49
2023/01/22 11:28:47;;;;;;;;;;;18.10;82.40;;;;;;5094228;28;19908;-48
2023/01/22 11:31:16;;;;;;;;;;;18.10;82.30;;;;;;5094658;28;19908;-47
2023/01/22 11:33:47;;;;;;;;;;;18.00;82.40;;;;;;5093988;28;19916;-45
2023/01/22 11:36:25;;;;;;;;;;;18.10;82.60;;;;;;5075728;28;19995;-46
2023/01/22 11:38:50;;;;;;;;;;;18.10;82.90;;;;;;5094083;28;19988;-49
2023/01/22 11:41:26;;;;;;;;;;;18.00;83.10;;;;;;5075973;28;19912;-50
2023/01/22 11:44:05;;;;;;;;;;;18.00;83.00;;;;;;5076089;28;19974;-49
2023/01/22 11:46:39;;;;;;;;;;;18.00;83.30;;;;;;5076104;28;19915;-45
2023/01/22 11:49:18;;;;;;;;;;;18.00;83.70;;;;;;5093990;28;19909;-46
2023/01/22 11:51:51;;;;;;;;;;;18.10;83.20;;;;;;5093604;28;19912;-47
2023/01/22 11:54:31;;;;;;;;;;;18.00;83.50;;;;;;5094032;28;19916;-45
2023/01/22 11:57:00;;;;;;;;;;;18.00;83.70;;;;;;5093921;28;19934;-45
2023/01/22 11:59:34;;;;;;;;;;;18.00;83.50;;;;;;5093787;28;19928;-46
2023/01/22 12:02:04;;;;;;;;;;;18.00;83.70;;;;;;5094129;28;19913;-50
2023/01/22 12:04:45;;;;;;;;;;;18.00;83.40;;;;;;5075934;28;20370;-52
2023/01/22 12:07:16;;;;;;;;;;;18.00;83.10;;;;;;5093954;28;19908;-47
2023/01/22 12:09:57;;;;;;;;;;;18.00;83.30;;;;;;5093979;28;19908;-46
2023/01/22 12:12:34;;;;;;;;;;;18.00;83.20;;;;;;5058055;28;20273;-46
2023/01/22 12:15:02;;;;;;;;;;;18.00;83.10;;;;;;5111865;28;19920;-49
2023/01/22 12:17:30;;;;;;;;;;;18.00;83.30;;;;;;5095238;28;20003;-46
2023/01/22 12:20:05;;;;;;;;;;;18.00;83.20;;;;;;5093776;28;19998;-46
2023/01/22 12:22:50;;;;;;;;;;;18.00;83.00;;;;;;5094158;28;19970;-48
2023/01/22 12:25:30;;;;;;;;;;;18.00;83.00;;;;;;5093607;28;19908;-48
2023/01/22 12:28:14;;;;;;;;;;;18.10;83.10;;;;;;5093557;28;19912;-48
2023/01/22 12:30:49;;;;;;;;;;;18.10;83.20;;;;;;5093350;28;20335;-45
2023/01/22 12:33:21;;;;;;;;;;;18.10;83.30;;;;;;5093147;28;19917;-48
2023/01/22 12:35:47;;;;;;;;;;;18.10;83.40;;;;;;5090414;28;20397;-47
2023/01/22 12:38:17;;;;;;;;;;;18.10;83.30;;;;;;5074301;28;19991;-47
2023/01/22 12:40:58;;;;;;;;;;;18.10;83.30;;;;;;5092213;28;19912;-50
2023/01/22 12:44:02;;;;;;;;;;;18.10;83.40;;;;;;5090764;28;19961;-47
2023/01/22 12:46:46;;;;;;;;;;;18.20;83.20;;;;;;5030936;28;19913;-46
2023/01/22 12:49:15;;;;;;;;;;;18.20;83.30;;;;;;5030840;28;19909;-49
2023/01/22 12:51:52;;;;;;;;;;;18.10;83.10;;;;;;5059628;28;20388;-49
2023/01/22 12:54:24;;;;;;;;;;;18.10;83.30;;;;;;5094364;28;20277;-47
2023/01/22 12:56:51;;;;;;;;;;;18.20;83.20;;;;;;5095906;28;19916;-48
2023/01/22 12:59:28;;;;;;;;;;;18.10;83.20;;;;;;5098362;28;19919;-46
2023/01/22 13:01:58;;;;;;;;;;;18.10;83.40;;;;;;5111708;28;20258;-47
2023/01/22 13:04:27;;;;;;;;;;;18.10;83.50;;;;;;5109846;28;19918;-47
2023/01/22 13:07:01;;;;;;;;;;;18.10;83.70;;;;;;5115560;28;19911;-46
2023/01/22 13:09:34;;;;;;;;;;;18.10;83.60;;;;;;5103065;28;19935;-49
2023/01/22 13:12:28;;;;;;;;;;;18.10;83.70;;;;;;5113425;28;19911;-49
2023/01/22 13:14:54;;;;;;;;;;;18.10;83.70;;;;;;5058488;28;20272;-48
2023/01/22 13:17:22;;;;;;;;;;;18.10;84.00;;;;;;5094207;28;19918;-45
2023/01/22 13:19:51;;;;;;;;;;;18.10;83.90;;;;;;5102837;28;20317;-48
2023/01/22 13:22:21;;;;;;;;;;;18.10;84.30;;;;;;5099095;28;20517;-50
2023/01/22 13:24:49;;;;;;;;;;;18.10;84.10;;;;;;5108540;28;19955;-48
2023/01/22 13:27:26;;;;;;;;;;;18.20;83.80;;;;;;5111936;28;19979;-45
2023/01/22 13:29:51;;;;;;;;;;;18.20;83.80;;;;;;5091996;28;19964;-47
2023/01/22 13:32:18;;;;;;;;;;;18.20;83.80;;;;;;5102226;28;20114;-47
2023/01/22 13:34:44;;;;;;;;;;;18.20;83.80;;;;;;5094783;28;19919;-48
2023/01/22 13:37:37;;;;;;;;;;;18.20;83.80;;;;;;5096167;28;19920;-47
2023/01/22 13:40:12;;;;;;;;;;;18.10;83.70;;;;;;5096652;28;20008;-49
2023/01/22 13:42:41;;;;;;;;;;;18.20;83.80;;;;;;5117331;28;19912;-51
2023/01/22 13:45:12;;;;;;;;;;;18.10;83.90;;;;;;5105350;28;19915;-49
2023/01/22 13:47:38;;;;;;;;;;;18.10;83.70;;;;;;5078172;28;19919;-47
2023/01/22 13:50:03;;;;;;;;;;;18.10;83.70;;;;;;5074954;28;19913;-46
2023/01/22 13:52:31;;;;;;;;;;;18.10;83.80;;;;;;5096531;28;19908;-46
2023/01/22 13:54:57;;;;;;;;;;;18.10;83.70;;;;;;5077378;28;19920;-45
2023/01/22 13:57:22;;;;;;;;;;;18.10;84.10;;;;;;5100483;28;19920;-45
2023/01/22 13:59:55;;;;;;;;;;;18.10;84.30;;;;;;5076871;28;19920;-48
2023/01/22 14:02:22;;;;;;;;;;;18.10;84.30;;;;;;5095738;28;19908;-45
2023/01/22 14:04:48;;;;;;;;;;;18.20;84.40;;;;;;5094372;28;20007;-52
2023/01/22 14:07:28;;;;;;;;;;;18.20;84.40;;;;;;5093456;28;19986;-48
2023/01/22 14:09:54;;;;;;;;;;;18.20;84.20;;;;;;5110584;28;19912;-48
2023/01/22 14:12:21;;;;;;;;;;;18.30;84.10;;;;;;5092318;28;19912;-46
2023/01/22 14:14:46;;;;;;;;;;;18.30;83.90;;;;;;5094906;28;19916;-48
2023/01/22 14:17:22;;;;;;;;;;;18.30;83.90;;;;;;5093546;28;19912;-48
2023/01/22 14:19:47;;;;;;;;;;;18.30;83.90;;;;;;5095376;28;20010;-48
2023/01/22 14:22:13;;;;;;;;;;;18.30;83.90;;;;;;5095334;28;19973;-47
2023/01/22 14:24:39;;;;;;;;;;;18.20;83.70;;;;;;5095297;28;19908;-46
2023/01/22 14:27:04;;;;;;;;;;;18.20;84.00;;;;;;5095533;28;20274;-49
2023/01/22 14:29:30;;;;;;;;;;;18.20;83.80;;;;;;5095883;28;19908;-49